sensor_id;sensor_type;location;lat;lon;timestamp;temperature;humidity
72277;SHT30;61204;49.980;8.358;2023-03-07T00:00:58;2.84;80.05
72277;SHT30;61204;49.980;8.358;2023-03-07T00:03:23;2.88;79.91
72277;SHT30;61204;49.980;8.358;2023-03-07T00:06:02;2.85;80.00
72277;SHT30;61204;49.980;8.358;2023-03-07T00:08:29;2.82;80.74
72277;SHT30;61204;49.980;8.358;2023-03-07T00:10:59;2.96;79.89
72277;SHT30;61204;49.980;8.358;2023-03-07T00:13:31;2.93;80.09
72277;SHT30;61204;49.980;8.358;2023-03-07T00:16:09;2.99;80.41
72277;SHT30;61204;49.980;8.358;2023-03-07T00:18:37;3.00;80.84
72277;SHT30;61204;49.980;8.358;2023-03-07T00:21:05;3.03;80.48
72277;SHT30;61204;49.980;8.358;2023-03-07T00:23:37;3.05;80.09
72277;SHT30;61204;49.980;8.358;2023-03-07T00:26:06;3.13;79.80
72277;SHT30;61204;49.980;8.358;2023-03-07T00:28:36;3.07;80.78
72277;SHT30;61204;49.980;8.358;2023-03-07T00:31:03;3.05;80.72
72277;SHT30;61204;49.980;8.358;2023-03-07T00:33:33;3.22;79.73
72277;SHT30;61204;49.980;8.358;2023-03-07T00:36:10;3.22;80.12
72277;SHT30;61204;49.980;8.358;2023-03-07T00:38:38;3.17;79.93
72277;SHT30;61204;49.980;8.358;2023-03-07T00:41:09;3.17;80.50
72277;SHT30;61204;49.980;8.358;2023-03-07T00:43:36;3.13;80.64
72277;SHT30;61204;49.980;8.358;2023-03-07T00:46:06;3.12;81.33
72277;SHT30;61204;49.980;8.358;2023-03-07T00:48:34;3.16;80.79
72277;SHT30;61204;49.980;8.358;2023-03-07T00:51:05;3.12;80.64
72277;SHT30;61204;49.980;8.358;2023-03-07T00:53:32;3.17;81.45
72277;SHT30;61204;49.980;8.358;2023-03-07T00:56:14;3.17;80.90
72277;SHT30;61204;49.980;8.358;2023-03-07T00:58:42;3.27;80.52
72277;SHT30;61204;49.980;8.358;2023-03-07T01:01:08;3.22;80.66
72277;SHT30;61204;49.980;8.358;2023-03-07T01:03:35;3.28;80.53
72277;SHT30;61204;49.980;8.358;2023-03-07T01:06:06;3.26;80.62
72277;SHT30;61204;49.980;8.358;2023-03-07T01:08:34;3.22;81.70
72277;SHT30;61204;49.980;8.358;2023-03-07T01:11:04;3.19;81.16
72277;SHT30;61204;49.980;8.358;2023-03-07T01:13:33;3.14;81.66
72277;SHT30;61204;49.980;8.358;2023-03-07T01:16:10;3.23;81.21
72277;SHT30;61204;49.980;8.358;2023-03-07T01:18:39;3.30;80.94
72277;SHT30;61204;49.980;8.358;2023-03-07T01:21:14;3.27;81.14
72277;SHT30;61204;49.980;8.358;2023-03-07T01:23:42;3.37;80.62
72277;SHT30;61204;49.980;8.358;2023-03-07T01:26:17;3.33;81.09
72277;SHT30;61204;49.980;8.358;2023-03-07T01:28:48;3.27;81.26
72277;SHT30;61204;49.980;8.358;2023-03-07T01:31:14;3.40;80.57
72277;SHT30;61204;49.980;8.358;2023-03-07T01:33:40;3.52;80.12
72277;SHT30;61204;49.980;8.358;2023-03-07T01:36:30;3.52;80.25
72277;SHT30;61204;49.980;8.358;2023-03-07T01:41:38;3.55;80.62
72277;SHT30;61204;49.980;8.358;2023-03-07T01:44:13;3.67;79.82
72277;SHT30;61204;49.980;8.358;2023-03-07T01:49:23;3.68;79.76
72277;SHT30;61204;49.980;8.358;2023-03-07T01:51:53;3.68;80.15
72277;SHT30;61204;49.980;8.358;2023-03-07T01:54:26;3.59;80.27
72277;SHT30;61204;49.980;8.358;2023-03-07T01:56:56;3.68;80.33
72277;SHT30;61204;49.980;8.358;2023-03-07T01:59:34;3.68;80.15
72277;SHT30;61204;49.980;8.358;2023-03-07T02:02:09;3.72;80.20
72277;SHT30;61204;49.980;8.358;2023-03-07T02:04:54;3.76;79.87
72277;SHT30;61204;49.980;8.358;2023-03-07T02:07:28;3.74;79.91
72277;SHT30;61204;49.980;8.358;2023-03-07T02:10:02;3.71;79.88
72277;SHT30;61204;49.980;8.358;2023-03-07T02:12:29;3.68;80.27
72277;SHT30;61204;49.980;8.358;2023-03-07T02:14:55;3.64;80.41
72277;SHT30;61204;49.980;8.358;2023-03-07T02:17:21;3.82;79.62
72277;SHT30;61204;49.980;8.358;2023-03-07T02:22:55;3.76;79.62
72277;SHT30;61204;49.980;8.358;2023-03-07T02:27:51;3.72;80.03
72277;SHT30;61204;49.980;8.358;2023-03-07T02:30:19;3.83;79.83
72277;SHT30;61204;49.980;8.358;2023-03-07T02:32:47;3.67;80.44
72277;SHT30;61204;49.980;8.358;2023-03-07T02:35:16;3.62;80.88
72277;SHT30;61204;49.980;8.358;2023-03-07T02:37:58;3.59;81.12
72277;SHT30;61204;49.980;8.358;2023-03-07T02:40:31;3.67;80.57
72277;SHT30;61204;49.980;8.358;2023-03-07T02:42:59;3.72;80.51
72277;SHT30;61204;49.980;8.358;2023-03-07T02:45:33;3.72;80.63
72277;SHT30;61204;49.980;8.358;2023-03-07T02:48:01;3.79;80.43
72277;SHT30;61204;49.980;8.358;2023-03-07T02:50:26;3.79;80.40
72277;SHT30;61204;49.980;8.358;2023-03-07T02:52:52;3.71;80.92
72277;SHT30;61204;49.980;8.358;2023-03-07T02:55:19;3.74;80.76
72277;SHT30;61204;49.980;8.358;2023-03-07T02:57:45;3.71;81.11
72277;SHT30;61204;49.980;8.358;2023-03-07T03:00:11;3.68;81.15
72277;SHT30;61204;49.980;8.358;2023-03-07T03:02:37;3.65;81.33
72277;SHT30;61204;49.980;8.358;2023-03-07T03:05:05;3.83;80.69
72277;SHT30;61204;49.980;8.358;2023-03-07T03:07:31;3.72;80.79
72277;SHT30;61204;49.980;8.358;2023-03-07T03:09:56;3.75;80.85
72277;SHT30;61204;49.980;8.358;2023-03-07T03:12:22;3.82;80.32
72277;SHT30;61204;49.980;8.358;2023-03-07T03:14:48;3.83;80.54
72277;SHT30;61204;49.980;8.358;2023-03-07T03:17:13;3.81;80.71
72277;SHT30;61204;49.980;8.358;2023-03-07T03:19:40;3.76;80.97
72277;SHT30;61204;49.980;8.358;2023-03-07T03:22:05;3.71;80.93
72277;SHT30;61204;49.980;8.358;2023-03-07T03:24:31;3.82;80.59
72277;SHT30;61204;49.980;8.358;2023-03-07T03:26:57;3.81;80.56
72277;SHT30;61204;49.980;8.358;2023-03-07T03:29:23;3.78;80.73
72277;SHT30;61204;49.980;8.358;2023-03-07T03:31:50;3.82;80.67
72277;SHT30;61204;49.980;8.358;2023-03-07T03:34:16;3.83;80.68
72277;SHT30;61204;49.980;8.358;2023-03-07T03:36:41;3.81;80.78
72277;SHT30;61204;49.980;8.358;2023-03-07T03:39:07;3.79;80.86
72277;SHT30;61204;49.980;8.358;2023-03-07T03:41:36;3.79;81.07
72277;SHT30;61204;49.980;8.358;2023-03-07T03:44:02;3.81;80.66
72277;SHT30;61204;49.980;8.358;2023-03-07T03:46:28;3.83;80.79
72277;SHT30;61204;49.980;8.358;2023-03-07T03:48:54;3.82;81.02
72277;SHT30;61204;49.980;8.358;2023-03-07T03:51:20;3.81;81.26
72277;SHT30;61204;49.980;8.358;2023-03-07T03:53:47;3.83;80.88
72277;SHT30;61204;49.980;8.358;2023-03-07T03:56:15;3.90;80.64
72277;SHT30;61204;49.980;8.358;2023-03-07T03:58:43;3.81;81.07
72277;SHT30;61204;49.980;8.358;2023-03-07T04:01:11;3.81;81.52
72277;SHT30;61204;49.980;8.358;2023-03-07T04:03:41;3.72;81.58
72277;SHT30;61204;49.980;8.358;2023-03-07T04:06:14;3.69;81.67
72277;SHT30;61204;49.980;8.358;2023-03-07T04:08:43;3.71;81.86
72277;SHT30;61204;49.980;8.358;2023-03-07T04:11:10;3.82;81.25
72277;SHT30;61204;49.980;8.358;2023-03-07T04:13:37;3.85;81.02
72277;SHT30;61204;49.980;8.358;2023-03-07T04:16:03;3.79;81.38
72277;SHT30;61204;49.980;8.358;2023-03-07T04:18:30;3.75;81.72
72277;SHT30;61204;49.980;8.358;2023-03-07T04:20:56;3.69;81.84
72277;SHT30;61204;49.980;8.358;2023-03-07T04:23:22;3.74;81.69
72277;SHT30;61204;49.980;8.358;2023-03-07T04:25:51;3.79;81.51
72277;SHT30;61204;49.980;8.358;2023-03-07T04:28:23;3.76;81.48
72277;SHT30;61204;49.980;8.358;2023-03-07T04:30:52;3.71;81.79
72277;SHT30;61204;49.980;8.358;2023-03-07T04:33:18;3.75;81.58
72277;SHT30;61204;49.980;8.358;2023-03-07T04:35:47;3.76;81.43
72277;SHT30;61204;49.980;8.358;2023-03-07T04:38:13;3.72;81.71
72277;SHT30;61204;49.980;8.358;2023-03-07T04:40:39;3.71;81.64
72277;SHT30;61204;49.980;8.358;2023-03-07T04:43:05;3.71;81.62
72277;SHT30;61204;49.980;8.358;2023-03-07T04:45:32;3.76;81.44
72277;SHT30;61204;49.980;8.358;2023-03-07T04:48:01;3.81;81.01
72277;SHT30;61204;49.980;8.358;2023-03-07T04:50:27;3.78;81.16
72277;SHT30;61204;49.980;8.358;2023-03-07T04:52:53;3.74;81.30
72277;SHT30;61204;49.980;8.358;2023-03-07T04:55:18;3.82;81.20
72277;SHT30;61204;49.980;8.358;2023-03-07T04:57:43;3.85;80.89
72277;SHT30;61204;49.980;8.358;2023-03-07T05:00:10;3.82;80.90
72277;SHT30;61204;49.980;8.358;2023-03-07T05:02:37;3.81;80.83
72277;SHT30;61204;49.980;8.358;2023-03-07T05:05:04;3.81;81.04
72277;SHT30;61204;49.980;8.358;2023-03-07T05:07:31;3.76;81.26
72277;SHT30;61204;49.980;8.358;2023-03-07T05:09:57;3.78;81.11
72277;SHT30;61204;49.980;8.358;2023-03-07T05:12:23;3.82;80.90
72277;SHT30;61204;49.980;8.358;2023-03-07T05:14:49;3.78;81.01
72277;SHT30;61204;49.980;8.358;2023-03-07T05:17:15;3.74;81.14
72277;SHT30;61204;49.980;8.358;2023-03-07T05:19:41;3.69;81.44
72277;SHT30;61204;49.980;8.358;2023-03-07T05:22:06;3.71;81.50
72277;SHT30;61204;49.980;8.358;2023-03-07T05:24:35;3.72;81.43
72277;SHT30;61204;49.980;8.358;2023-03-07T05:27:00;3.79;80.99
72277;SHT30;61204;49.980;8.358;2023-03-07T05:29:26;3.82;81.04
72277;SHT30;61204;49.980;8.358;2023-03-07T05:31:52;3.82;80.55
72277;SHT30;61204;49.980;8.358;2023-03-07T05:34:20;3.76;80.77
72277;SHT30;61204;49.980;8.358;2023-03-07T05:36:46;3.87;80.32
72277;SHT30;61204;49.980;8.358;2023-03-07T05:39:12;3.86;80.38
72277;SHT30;61204;49.980;8.358;2023-03-07T05:41:40;3.90;80.30
72277;SHT30;61204;49.980;8.358;2023-03-07T05:44:05;3.85;80.33
72277;SHT30;61204;49.980;8.358;2023-03-07T05:46:31;3.86;80.44
72277;SHT30;61204;49.980;8.358;2023-03-07T05:48:56;3.92;80.10
72277;SHT30;61204;49.980;8.358;2023-03-07T05:51:22;3.96;79.59
72277;SHT30;61204;49.980;8.358;2023-03-07T05:53:47;3.92;79.94
72277;SHT30;61204;49.980;8.358;2023-03-07T05:56:13;3.97;79.49
72277;SHT30;61204;49.980;8.358;2023-03-07T05:58:38;4.00;79.49
72277;SHT30;61204;49.980;8.358;2023-03-07T06:01:04;3.89;79.98
72277;SHT30;61204;49.980;8.358;2023-03-07T06:03:30;3.90;79.78
72277;SHT30;61204;49.980;8.358;2023-03-07T06:05:56;3.87;80.00
72277;SHT30;61204;49.980;8.358;2023-03-07T06:08:22;3.87;79.97
72277;SHT30;61204;49.980;8.358;2023-03-07T06:10:51;3.87;80.29
72277;SHT30;61204;49.980;8.358;2023-03-07T06:13:20;3.90;80.06
72277;SHT30;61204;49.980;8.358;2023-03-07T06:15:56;3.96;79.25
72277;SHT30;61204;49.980;8.358;2023-03-07T06:18:23;4.00;78.97
72277;SHT30;61204;49.980;8.358;2023-03-07T06:21:16;4.03;79.13
72277;SHT30;61204;49.980;8.358;2023-03-07T06:23:43;4.02;79.06
72277;SHT30;61204;49.980;8.358;2023-03-07T06:26:09;4.11;78.63
72277;SHT30;61204;49.980;8.358;2023-03-07T06:28:37;4.13;78.36
72277;SHT30;61204;49.980;8.358;2023-03-07T06:31:11;4.09;78.58
72277;SHT30;61204;49.980;8.358;2023-03-07T06:33:44;4.16;77.91
72277;SHT30;61204;49.980;8.358;2023-03-07T06:36:14;4.25;77.72
72277;SHT30;61204;49.980;8.358;2023-03-07T06:38:41;4.24;77.45
72277;SHT30;61204;49.980;8.358;2023-03-07T06:41:07;4.29;77.18
72277;SHT30;61204;49.980;8.358;2023-03-07T06:43:33;4.27;77.28
72277;SHT30;61204;49.980;8.358;2023-03-07T06:45:58;4.27;77.42
72277;SHT30;61204;49.980;8.358;2023-03-07T06:48:27;4.20;77.79
72277;SHT30;61204;49.980;8.358;2023-03-07T06:50:53;4.21;77.83
72277;SHT30;61204;49.980;8.358;2023-03-07T06:53:18;4.25;77.21
72277;SHT30;61204;49.980;8.358;2023-03-07T06:55:48;4.38;76.78
72277;SHT30;61204;49.980;8.358;2023-03-07T06:58:15;4.42;76.61
72277;SHT30;61204;49.980;8.358;2023-03-07T07:00:41;4.33;77.14
72277;SHT30;61204;49.980;8.358;2023-03-07T07:03:06;4.41;76.71
72277;SHT30;61204;49.980;8.358;2023-03-07T07:05:32;4.40;76.87
72277;SHT30;61204;49.980;8.358;2023-03-07T07:07:57;4.51;76.22
72277;SHT30;61204;49.980;8.358;2023-03-07T07:10:22;4.55;76.16
72277;SHT30;61204;49.980;8.358;2023-03-07T07:12:53;4.48;76.49
72277;SHT30;61204;49.980;8.358;2023-03-07T07:15:21;4.50;76.56
72277;SHT30;61204;49.980;8.358;2023-03-07T07:17:47;4.55;76.44
72277;SHT30;61204;49.980;8.358;2023-03-07T07:20:15;4.58;76.28
72277;SHT30;61204;49.980;8.358;2023-03-07T07:22:40;4.61;76.01
72277;SHT30;61204;49.980;8.358;2023-03-07T07:25:06;4.75;75.84
72277;SHT30;61204;49.980;8.358;2023-03-07T07:27:32;4.73;75.52
72277;SHT30;61204;49.980;8.358;2023-03-07T07:29:57;4.76;76.13
72277;SHT30;61204;49.980;8.358;2023-03-07T07:32:23;4.80;76.00
72277;SHT30;61204;49.980;8.358;2023-03-07T07:34:48;4.97;75.51
72277;SHT30;61204;49.980;8.358;2023-03-07T07:37:14;4.96;74.93
72277;SHT30;61204;49.980;8.358;2023-03-07T07:39:39;5.01;74.88
72277;SHT30;61204;49.980;8.358;2023-03-07T07:42:07;5.04;75.13
72277;SHT30;61204;49.980;8.358;2023-03-07T07:44:34;5.19;74.60
72277;SHT30;61204;49.980;8.358;2023-03-07T07:47:00;5.17;74.53
72277;SHT30;61204;49.980;8.358;2023-03-07T07:49:25;5.28;74.12
72277;SHT30;61204;49.980;8.358;2023-03-07T07:51:51;5.38;73.48
72277;SHT30;61204;49.980;8.358;2023-03-07T07:54:16;5.44;72.70
72277;SHT30;61204;49.980;8.358;2023-03-07T07:56:44;5.34;73.60
72277;SHT30;61204;49.980;8.358;2023-03-07T07:59:10;5.42;73.44
72277;SHT30;61204;49.980;8.358;2023-03-07T08:01:37;5.55;72.88
72277;SHT30;61204;49.980;8.358;2023-03-07T08:04:02;5.56;72.52
72277;SHT30;61204;49.980;8.358;2023-03-07T08:06:28;5.72;72.33
72277;SHT30;61204;49.980;8.358;2023-03-07T08:08:54;5.80;71.68
72277;SHT30;61204;49.980;8.358;2023-03-07T08:11:21;5.78;71.62
72277;SHT30;61204;49.980;8.358;2023-03-07T08:13:47;5.87;71.30
72277;SHT30;61204;49.980;8.358;2023-03-07T08:16:20;5.97;70.68
72277;SHT30;61204;49.980;8.358;2023-03-07T08:18:54;6.04;70.94
72277;SHT30;61204;49.980;8.358;2023-03-07T08:21:21;6.04;69.73
72277;SHT30;61204;49.980;8.358;2023-03-07T08:23:48;6.00;70.04
72277;SHT30;61204;49.980;8.358;2023-03-07T08:26:14;6.14;69.57
72277;SHT30;61204;49.980;8.358;2023-03-07T08:28:42;6.32;69.28
72277;SHT30;61204;49.980;8.358;2023-03-07T08:31:19;6.41;68.95
72277;SHT30;61204;49.980;8.358;2023-03-07T08:33:48;6.42;68.07
72277;SHT30;61204;49.980;8.358;2023-03-07T08:36:14;6.30;68.37
72277;SHT30;61204;49.980;8.358;2023-03-07T08:38:42;6.41;68.64
72277;SHT30;61204;49.980;8.358;2023-03-07T08:41:11;6.46;68.37
72277;SHT30;61204;49.980;8.358;2023-03-07T08:43:37;6.55;67.67
72277;SHT30;61204;49.980;8.358;2023-03-07T08:46:03;6.65;67.71
72277;SHT30;61204;49.980;8.358;2023-03-07T08:48:29;6.68;66.60
72277;SHT30;61204;49.980;8.358;2023-03-07T08:50:55;6.82;66.42
72277;SHT30;61204;49.980;8.358;2023-03-07T08:53:21;6.76;66.42
72277;SHT30;61204;49.980;8.358;2023-03-07T08:55:47;6.85;66.19
72277;SHT30;61204;49.980;8.358;2023-03-07T08:58:12;7.08;65.17
72277;SHT30;61204;49.980;8.358;2023-03-07T09:00:38;7.11;64.98
72277;SHT30;61204;49.980;8.358;2023-03-07T09:03:05;7.11;65.07
72277;SHT30;61204;49.980;8.358;2023-03-07T09:05:35;7.18;65.17
72277;SHT30;61204;49.980;8.358;2023-03-07T09:08:03;7.20;64.25
72277;SHT30;61204;49.980;8.358;2023-03-07T09:10:30;7.20;64.57
72277;SHT30;61204;49.980;8.358;2023-03-07T09:12:55;7.45;63.94
72277;SHT30;61204;49.980;8.358;2023-03-07T09:15:21;7.49;63.60
72277;SHT30;61204;49.980;8.358;2023-03-07T09:17:46;7.56;64.10
72277;SHT30;61204;49.980;8.358;2023-03-07T09:20:12;7.47;63.44
72277;SHT30;61204;49.980;8.358;2023-03-07T09:22:40;7.72;62.69
72277;SHT30;61204;49.980;8.358;2023-03-07T09:25:06;7.76;62.24
72277;SHT30;61204;49.980;8.358;2023-03-07T09:27:32;7.90;62.05
72277;SHT30;61204;49.980;8.358;2023-03-07T09:29:59;8.58;60.98
72277;SHT30;61204;49.980;8.358;2023-03-07T09:32:25;9.15;59.29
72277;SHT30;61204;49.980;8.358;2023-03-07T09:34:51;9.15;57.97
72277;SHT30;61204;49.980;8.358;2023-03-07T09:37:17;8.88;58.35
72277;SHT30;61204;49.980;8.358;2023-03-07T09:39:48;8.86;58.82
72277;SHT30;61204;49.980;8.358;2023-03-07T09:42:40;8.59;59.06
72277;SHT30;61204;49.980;8.358;2023-03-07T09:51:20;8.20;60.26
72277;SHT30;61204;49.980;8.358;2023-03-07T09:54:04;8.28;59.74
72277;SHT30;61204;49.980;8.358;2023-03-07T09:56:39;8.18;59.51
72277;SHT30;61204;49.980;8.358;2023-03-07T09:59:16;8.04;60.21
72277;SHT30;61204;49.980;8.358;2023-03-07T10:07:23;8.13;60.08
72277;SHT30;61204;49.980;8.358;2023-03-07T10:09:56;7.91;60.51
72277;SHT30;61204;49.980;8.358;2023-03-07T10:15:29;8.07;59.92
72277;SHT30;61204;49.980;8.358;2023-03-07T10:18:12;8.21;59.67
72277;SHT30;61204;49.980;8.358;2023-03-07T10:20:52;8.30;59.40
72277;SHT30;61204;49.980;8.358;2023-03-07T10:26:28;8.66;58.12
72277;SHT30;61204;49.980;8.358;2023-03-07T10:28:59;8.63;57.96
72277;SHT30;61204;49.980;8.358;2023-03-07T10:31:35;8.48;57.96
72277;SHT30;61204;49.980;8.358;2023-03-07T10:34:25;8.63;57.84
72277;SHT30;61204;49.980;8.358;2023-03-07T10:36:56;8.38;57.24
72277;SHT30;61204;49.980;8.358;2023-03-07T10:39:31;8.38;57.44
72277;SHT30;61204;49.980;8.358;2023-03-07T10:42:03;8.70;56.34
72277;SHT30;61204;49.980;8.358;2023-03-07T10:44:32;8.77;55.67
72277;SHT30;61204;49.980;8.358;2023-03-07T10:46:58;8.65;55.50
72277;SHT30;61204;49.980;8.358;2023-03-07T10:49:36;8.70;54.78
72277;SHT30;61204;49.980;8.358;2023-03-07T10:54:41;8.70;54.94
72277;SHT30;61204;49.980;8.358;2023-03-07T10:57:17;8.86;55.25
72277;SHT30;61204;49.980;8.358;2023-03-07T10:59:47;8.79;55.08
72277;SHT30;61204;49.980;8.358;2023-03-07T11:02:41;8.80;53.95
72277;SHT30;61204;49.980;8.358;2023-03-07T11:05:37;8.87;54.52
72277;SHT30;61204;49.980;8.358;2023-03-07T11:08:25;9.00;53.58
72277;SHT30;61204;49.980;8.358;2023-03-07T11:10:53;9.08;53.73
72277;SHT30;61204;49.980;8.358;2023-03-07T11:13:22;9.00;54.62
72277;SHT30;61204;49.980;8.358;2023-03-07T11:15:51;9.01;53.32
72277;SHT30;61204;49.980;8.358;2023-03-07T11:18:42;8.96;53.52
72277;SHT30;61204;49.980;8.358;2023-03-07T11:21:34;9.08;53.50
72277;SHT30;61204;49.980;8.358;2023-03-07T11:24:23;9.05;52.76
72277;SHT30;61204;49.980;8.358;2023-03-07T11:26:55;9.34;52.59
72277;SHT30;61204;49.980;8.358;2023-03-07T11:29:24;9.03;52.24
72277;SHT30;61204;49.980;8.358;2023-03-07T11:32:12;9.11;52.90
72277;SHT30;61204;49.980;8.358;2023-03-07T11:34:52;9.28;52.76
72277;SHT30;61204;49.980;8.358;2023-03-07T11:37:30;9.20;52.39
72277;SHT30;61204;49.980;8.358;2023-03-07T11:40:18;9.08;52.64
72277;SHT30;61204;49.980;8.358;2023-03-07T11:45:58;9.13;52.48
72277;SHT30;61204;49.980;8.358;2023-03-07T11:51:36;8.97;53.51
72277;SHT30;61204;49.980;8.358;2023-03-07T12:25:59;9.96;50.36
72277;SHT30;61204;49.980;8.358;2023-03-07T12:28:42;10.32;50.93
72277;SHT30;61204;49.980;8.358;2023-03-07T12:31:35;10.21;50.64
72277;SHT30;61204;49.980;8.358;2023-03-07T12:36:48;9.36;52.80
72277;SHT30;61204;49.980;8.358;2023-03-07T12:39:26;9.28;53.35
72277;SHT30;61204;49.980;8.358;2023-03-07T12:42:16;9.36;53.19
72277;SHT30;61204;49.980;8.358;2023-03-07T12:45:20;9.43;53.47
72277;SHT30;61204;49.980;8.358;2023-03-07T12:48:07;9.17;53.88
72277;SHT30;61204;49.980;8.358;2023-03-07T12:51:03;9.05;54.35
72277;SHT30;61204;49.980;8.358;2023-03-07T12:53:50;8.96;54.59
72277;SHT30;61204;49.980;8.358;2023-03-07T12:56:46;8.84;54.59
72277;SHT30;61204;49.980;8.358;2023-03-07T12:59:18;8.76;55.21
72277;SHT30;61204;49.980;8.358;2023-03-07T13:04:32;8.65;56.24
72277;SHT30;61204;49.980;8.358;2023-03-07T13:07:11;8.59;56.46
72277;SHT30;61204;49.980;8.358;2023-03-07T13:09:45;8.62;56.48
72277;SHT30;61204;49.980;8.358;2023-03-07T13:14:55;8.53;57.12
72277;SHT30;61204;49.980;8.358;2023-03-07T13:17:58;8.52;57.32
72277;SHT30;61204;49.980;8.358;2023-03-07T13:23:26;8.44;58.35
72277;SHT30;61204;49.980;8.358;2023-03-07T13:25:57;8.41;58.06
72277;SHT30;61204;49.980;8.358;2023-03-07T13:28:31;8.37;58.76
72277;SHT30;61204;49.980;8.358;2023-03-07T13:33:44;8.60;58.21
72277;SHT30;61204;49.980;8.358;2023-03-07T13:36:34;8.69;58.38
72277;SHT30;61204;49.980;8.358;2023-03-07T13:39:02;8.70;58.66
72277;SHT30;61204;49.980;8.358;2023-03-07T13:41:49;8.84;58.56
72277;SHT30;61204;49.980;8.358;2023-03-07T13:44:36;8.56;59.06
72277;SHT30;61204;49.980;8.358;2023-03-07T13:47:03;8.46;59.21
72277;SHT30;61204;49.980;8.358;2023-03-07T13:49:51;8.30;59.87
72277;SHT30;61204;49.980;8.358;2023-03-07T13:52:35;8.11;60.42
72277;SHT30;61204;49.980;8.358;2023-03-07T13:55:17;8.10;60.77
72277;SHT30;61204;49.980;8.358;2023-03-07T13:57:47;8.03;60.99
72277;SHT30;61204;49.980;8.358;2023-03-07T14:00:21;8.05;60.95
72277;SHT30;61204;49.980;8.358;2023-03-07T14:02:51;8.24;60.76
72277;SHT30;61204;49.980;8.358;2023-03-07T14:05:18;8.27;60.60
72277;SHT30;61204;49.980;8.358;2023-03-07T14:07:44;8.45;60.35
72277;SHT30;61204;49.980;8.358;2023-03-07T14:10:23;8.41;60.03
72277;SHT30;61204;49.980;8.358;2023-03-07T14:15:59;8.35;60.49
72277;SHT30;61204;49.980;8.358;2023-03-07T14:19:13;8.27;60.04
72277;SHT30;61204;49.980;8.358;2023-03-07T14:22:04;8.28;60.36
72277;SHT30;61204;49.980;8.358;2023-03-07T14:24:56;8.28;60.33
72277;SHT30;61204;49.980;8.358;2023-03-07T14:27:24;8.32;59.89
72277;SHT30;61204;49.980;8.358;2023-03-07T14:29:52;8.20;60.20
72277;SHT30;61204;49.980;8.358;2023-03-07T14:34:54;8.11;60.91
72277;SHT30;61204;49.980;8.358;2023-03-07T14:37:25;8.14;61.19
72277;SHT30;61204;49.980;8.358;2023-03-07T14:40:05;8.17;60.98
72277;SHT30;61204;49.980;8.358;2023-03-07T14:42:55;8.13;60.85
72277;SHT30;61204;49.980;8.358;2023-03-07T14:45:25;8.20;60.90
72277;SHT30;61204;49.980;8.358;2023-03-07T14:50:46;8.10;61.31
72277;SHT30;61204;49.980;8.358;2023-03-07T14:53:27;8.10;61.63
72277;SHT30;61204;49.980;8.358;2023-03-07T14:55:56;8.07;61.71
72277;SHT30;61204;49.980;8.358;2023-03-07T14:58:28;8.03;61.79
72277;SHT30;61204;49.980;8.358;2023-03-07T15:01:13;8.04;61.76
72277;SHT30;61204;49.980;8.358;2023-03-07T15:03:47;8.08;61.41
72277;SHT30;61204;49.980;8.358;2023-03-07T15:06:23;8.04;61.50
72277;SHT30;61204;49.980;8.358;2023-03-07T15:08:51;8.01;61.84
72277;SHT30;61204;49.980;8.358;2023-03-07T15:11:39;8.03;62.30
72277;SHT30;61204;49.980;8.358;2023-03-07T15:14:19;8.07;62.34
72277;SHT30;61204;49.980;8.358;2023-03-07T15:17:00;7.93;62.69
72277;SHT30;61204;49.980;8.358;2023-03-07T15:19:38;7.85;63.04
72277;SHT30;61204;49.980;8.358;2023-03-07T15:24:51;7.70;63.78
72277;SHT30;61204;49.980;8.358;2023-03-07T15:27:30;7.72;63.53
72277;SHT30;61204;49.980;8.358;2023-03-07T15:29:57;7.72;63.25
72277;SHT30;61204;49.980;8.358;2023-03-07T15:32:40;7.68;63.38
72277;SHT30;61204;49.980;8.358;2023-03-07T15:37:37;7.69;62.74
72277;SHT30;61204;49.980;8.358;2023-03-07T15:42:52;7.79;62.47
72277;SHT30;61204;49.980;8.358;2023-03-07T15:47:59;7.72;62.68
72277;SHT30;61204;49.980;8.358;2023-03-07T15:50:27;7.69;62.60
72277;SHT30;61204;49.980;8.358;2023-03-07T15:53:01;7.69;62.49
72277;SHT30;61204;49.980;8.358;2023-03-07T15:55:31;7.70;62.76
72277;SHT30;61204;49.980;8.358;2023-03-07T15:57:59;7.62;63.36
72277;SHT30;61204;49.980;8.358;2023-03-07T16:00:37;7.63;63.70
72277;SHT30;61204;49.980;8.358;2023-03-07T16:03:30;7.66;64.03
72277;SHT30;61204;49.980;8.358;2023-03-07T16:05:58;7.54;64.01
72277;SHT30;61204;49.980;8.358;2023-03-07T16:08:24;7.49;64.24
72277;SHT30;61204;49.980;8.358;2023-03-07T16:11:03;7.36;64.73
72277;SHT30;61204;49.980;8.358;2023-03-07T16:13:40;7.35;65.23
72277;SHT30;61204;49.980;8.358;2023-03-07T16:16:19;7.30;65.51
72277;SHT30;61204;49.980;8.358;2023-03-07T16:18:47;7.31;65.54
72277;SHT30;61204;49.980;8.358;2023-03-07T16:21:14;7.31;65.62
72277;SHT30;61204;49.980;8.358;2023-03-07T16:23:41;7.27;65.36
72277;SHT30;61204;49.980;8.358;2023-03-07T16:26:12;7.18;65.55
72277;SHT30;61204;49.980;8.358;2023-03-07T16:28:41;7.15;65.83
72277;SHT30;61204;49.980;8.358;2023-03-07T16:31:14;7.14;65.92
72277;SHT30;61204;49.980;8.358;2023-03-07T16:33:42;7.14;66.28
72277;SHT30;61204;49.980;8.358;2023-03-07T16:36:13;7.11;66.38
72277;SHT30;61204;49.980;8.358;2023-03-07T16:38:39;7.13;65.93
72277;SHT30;61204;49.980;8.358;2023-03-07T16:41:16;7.05;66.09
72277;SHT30;61204;49.980;8.358;2023-03-07T16:43:45;6.94;67.51
72277;SHT30;61204;49.980;8.358;2023-03-07T16:46:17;6.75;68.73
72277;SHT30;61204;49.980;8.358;2023-03-07T16:48:43;6.76;68.67
72277;SHT30;61204;49.980;8.358;2023-03-07T16:51:20;6.77;68.59
72277;SHT30;61204;49.980;8.358;2023-03-07T16:53:50;6.75;68.85
72277;SHT30;61204;49.980;8.358;2023-03-07T16:56:30;6.65;69.24
72277;SHT30;61204;49.980;8.358;2023-03-07T16:58:58;6.66;69.16
72277;SHT30;61204;49.980;8.358;2023-03-07T17:01:24;6.62;69.59
72277;SHT30;61204;49.980;8.358;2023-03-07T17:03:50;6.56;69.50
72277;SHT30;61204;49.980;8.358;2023-03-07T17:06:16;6.66;68.93
72277;SHT30;61204;49.980;8.358;2023-03-07T17:08:44;6.71;68.20
72277;SHT30;61204;49.980;8.358;2023-03-07T17:11:21;6.66;68.39
72277;SHT30;61204;49.980;8.358;2023-03-07T17:13:52;6.64;68.67
72277;SHT30;61204;49.980;8.358;2023-03-07T17:16:20;6.52;69.07
72277;SHT30;61204;49.980;8.358;2023-03-07T17:18:46;6.52;68.86
72277;SHT30;61204;49.980;8.358;2023-03-07T17:21:13;6.51;68.66
72277;SHT30;61204;49.980;8.358;2023-03-07T17:23:40;6.66;67.79
72277;SHT30;61204;49.980;8.358;2023-03-07T17:26:06;6.69;67.49
72277;SHT30;61204;49.980;8.358;2023-03-07T17:28:42;6.62;67.44
72277;SHT30;61204;49.980;8.358;2023-03-07T17:31:08;6.65;67.01
72277;SHT30;61204;49.980;8.358;2023-03-07T17:33:34;6.69;67.12
72277;SHT30;61204;49.980;8.358;2023-03-07T17:36:00;6.72;67.01
72277;SHT30;61204;49.980;8.358;2023-03-07T17:38:25;6.69;66.77
72277;SHT30;61204;49.980;8.358;2023-03-07T17:40:55;6.68;67.01
72277;SHT30;61204;49.980;8.358;2023-03-07T17:43:23;6.73;66.59
72277;SHT30;61204;49.980;8.358;2023-03-07T17:45:48;6.69;66.74
72277;SHT30;61204;49.980;8.358;2023-03-07T17:48:14;6.73;66.59
72277;SHT30;61204;49.980;8.358;2023-03-07T17:50:40;6.77;66.28